sensor_id;sensor_type;location;lat;lon;timestamp;temperature;humidity
1936;DHT22;969;49.892;10.896;2023-06-04T00:02:15;23.30;45.60
1936;DHT22;969;49.892;10.896;2023-06-04T00:04:40;23.30;45.30
1936;DHT22;969;49.892;10.896;2023-06-04T00:07:06;23.40;45.20
1936;DHT22;969;49.892;10.896;2023-06-04T00:09:32;23.30;45.20
1936;DHT22;969;49.892;10.896;2023-06-04T00:11:57;23.30;45.30
1936;DHT22;969;49.892;10.896;2023-06-04T00:14:23;23.30;45.00
1936;DHT22;969;49.892;10.896;2023-06-04T00:16:49;23.30;44.70
1936;DHT22;969;49.892;10.896;2023-06-04T00:19:14;23.30;44.50
1936;DHT22;969;49.892;10.896;2023-06-04T00:21:40;23.30;44.40
1936;DHT22;969;49.892;10.896;2023-06-04T00:24:06;23.30;44.50
1936;DHT22;969;49.892;10.896;2023-06-04T00:26:33;23.30;44.40
1936;DHT22;969;49.892;10.896;2023-06-04T00:28:58;23.30;44.40
1936;DHT22;969;49.892;10.896;2023-06-04T00:31:24;23.30;44.30
1936;DHT22;969;49.892;10.896;2023-06-04T00:33:50;23.30;44.30
1936;DHT22;969;49.892;10.896;2023-06-04T00:36:16;23.30;44.70
1936;DHT22;969;49.892;10.896;2023-06-04T00:38:41;23.30;44.70
1936;DHT22;969;49.892;10.896;2023-06-04T00:41:07;23.30;44.90
1936;DHT22;969;49.892;10.896;2023-06-04T00:43:33;23.30;44.70
1936;DHT22;969;49.892;10.896;2023-06-04T00:45:58;23.30;44.80
1936;DHT22;969;49.892;10.896;2023-06-04T00:48:25;23.30;44.70
1936;DHT22;969;49.892;10.896;2023-06-04T00:50:56;23.30;44.60
1936;DHT22;969;49.892;10.896;2023-06-04T00:53:24;23.30;44.50
1936;DHT22;969;49.892;10.896;2023-06-04T00:55:50;23.30;44.40
1936;DHT22;969;49.892;10.896;2023-06-04T00:58:16;23.30;44.30
1936;DHT22;969;49.892;10.896;2023-06-04T01:00:43;23.30;44.30
1936;DHT22;969;49.892;10.896;2023-06-04T01:03:14;23.30;44.20
1936;DHT22;969;49.892;10.896;2023-06-04T01:06:02;23.30;44.70
1936;DHT22;969;49.892;10.896;2023-06-04T01:08:29;23.30;44.80
1936;DHT22;969;49.892;10.896;2023-06-04T01:10:56;23.30;44.20
1936;DHT22;969;49.892;10.896;2023-06-04T01:13:22;23.30;44.10
1936;DHT22;969;49.892;10.896;2023-06-04T01:15:48;23.30;43.90
1936;DHT22;969;49.892;10.896;2023-06-04T01:18:27;23.30;44.30
1936;DHT22;969;49.892;10.896;2023-06-04T01:21:01;23.30;43.70
1936;DHT22;969;49.892;10.896;2023-06-04T01:23:40;23.30;43.60
1936;DHT22;969;49.892;10.896;2023-06-04T01:26:10;23.30;43.50
1936;DHT22;969;49.892;10.896;2023-06-04T01:28:37;23.30;43.30
1936;DHT22;969;49.892;10.896;2023-06-04T01:31:04;23.30;43.30
1936;DHT22;969;49.892;10.896;2023-06-04T01:33:33;23.30;43.30
1936;DHT22;969;49.892;10.896;2023-06-04T01:35:59;23.20;43.60
1936;DHT22;969;49.892;10.896;2023-06-04T01:38:25;23.20;43.60
1936;DHT22;969;49.892;10.896;2023-06-04T01:40:51;23.30;43.30
1936;DHT22;969;49.892;10.896;2023-06-04T01:43:21;23.20;43.10
1936;DHT22;969;49.892;10.896;2023-06-04T01:45:47;23.20;43.00
1936;DHT22;969;49.892;10.896;2023-06-04T01:48:13;23.20;42.90
1936;DHT22;969;49.892;10.896;2023-06-04T01:50:39;23.20;42.90
1936;DHT22;969;49.892;10.896;2023-06-04T01:53:05;23.20;42.70
1936;DHT22;969;49.892;10.896;2023-06-04T01:55:31;23.20;42.60
1936;DHT22;969;49.892;10.896;2023-06-04T01:57:59;23.20;42.60
1936;DHT22;969;49.892;10.896;2023-06-04T02:00:24;23.20;42.60
1936;DHT22;969;49.892;10.896;2023-06-04T02:02:51;23.20;42.50
1936;DHT22;969;49.892;10.896;2023-06-04T02:05:17;23.20;42.80
1936;DHT22;969;49.892;10.896;2023-06-04T02:07:44;23.20;43.10
1936;DHT22;969;49.892;10.896;2023-06-04T02:10:19;23.20;42.70
1936;DHT22;969;49.892;10.896;2023-06-04T02:12:55;23.20;42.70
1936;DHT22;969;49.892;10.896;2023-06-04T02:15:22;23.20;42.60
1936;DHT22;969;49.892;10.896;2023-06-04T02:17:49;23.20;42.40
1936;DHT22;969;49.892;10.896;2023-06-04T02:20:16;23.20;42.20
1936;DHT22;969;49.892;10.896;2023-06-04T02:22:42;23.20;42.20
1936;DHT22;969;49.892;10.896;2023-06-04T02:25:08;23.20;42.10
1936;DHT22;969;49.892;10.896;2023-06-04T02:27:37;23.10;42.00
1936;DHT22;969;49.892;10.896;2023-06-04T02:30:03;23.10;41.80
1936;DHT22;969;49.892;10.896;2023-06-04T02:32:30;23.10;41.80
1936;DHT22;969;49.892;10.896;2023-06-04T02:34:56;23.10;42.00
1936;DHT22;969;49.892;10.896;2023-06-04T02:37:22;23.10;42.50
1936;DHT22;969;49.892;10.896;2023-06-04T02:39:47;23.10;42.20
1936;DHT22;969;49.892;10.896;2023-06-04T02:42:13;23.10;41.90
1936;DHT22;969;49.892;10.896;2023-06-04T02:44:39;23.10;41.90
1936;DHT22;969;49.892;10.896;2023-06-04T02:47:05;23.10;41.80
1936;DHT22;969;49.892;10.896;2023-06-04T02:49:30;23.10;41.70
1936;DHT22;969;49.892;10.896;2023-06-04T02:51:56;23.10;41.70
1936;DHT22;969;49.892;10.896;2023-06-04T02:54:22;23.10;41.50
1936;DHT22;969;49.892;10.896;2023-06-04T02:56:47;23.10;41.50
1936;DHT22;969;49.892;10.896;2023-06-04T02:59:14;23.10;41.40
1936;DHT22;969;49.892;10.896;2023-06-04T03:01:40;23.10;41.50
1936;DHT22;969;49.892;10.896;2023-06-04T03:04:06;23.10;41.80
1936;DHT22;969;49.892;10.896;2023-06-04T03:06:35;23.10;42.20
1936;DHT22;969;49.892;10.896;2023-06-04T03:09:04;23.10;41.90
1936;DHT22;969;49.892;10.896;2023-06-04T03:11:29;23.10;41.60
1936;DHT22;969;49.892;10.896;2023-06-04T03:13:55;23.10;41.60
1936;DHT22;969;49.892;10.896;2023-06-04T03:16:21;23.00;41.40
1936;DHT22;969;49.892;10.896;2023-06-04T03:18:47;23.00;41.30
1936;DHT22;969;49.892;10.896;2023-06-04T03:21:12;23.00;41.80
1936;DHT22;969;49.892;10.896;2023-06-04T03:23:39;23.00;41.30
1936;DHT22;969;49.892;10.896;2023-06-04T03:26:05;23.00;41.20
1936;DHT22;969;49.892;10.896;2023-06-04T03:28:32;23.00;41.20
1936;DHT22;969;49.892;10.896;2023-06-04T03:30:58;23.00;41.00
1936;DHT22;969;49.892;10.896;2023-06-04T03:33:24;23.00;41.10
1936;DHT22;969;49.892;10.896;2023-06-04T03:35:50;23.00;41.10
1936;DHT22;969;49.892;10.896;2023-06-04T03:38:16;23.00;41.10
1936;DHT22;969;49.892;10.896;2023-06-04T03:40:42;23.00;41.10
1936;DHT22;969;49.892;10.896;2023-06-04T03:43:09;23.00;41.10
1936;DHT22;969;49.892;10.896;2023-06-04T03:45:35;23.00;41.20
1936;DHT22;969;49.892;10.896;2023-06-04T03:48:00;23.00;41.10
1936;DHT22;969;49.892;10.896;2023-06-04T03:50:26;23.00;41.10
1936;DHT22;969;49.892;10.896;2023-06-04T03:52:52;23.00;41.00
1936;DHT22;969;49.892;10.896;2023-06-04T03:55:17;23.00;41.10
1936;DHT22;969;49.892;10.896;2023-06-04T03:57:43;23.00;41.20
1936;DHT22;969;49.892;10.896;2023-06-04T04:00:10;23.00;41.20
1936;DHT22;969;49.892;10.896;2023-06-04T04:02:41;23.00;41.20
1936;DHT22;969;49.892;10.896;2023-06-04T04:05:08;23.00;41.30
1936;DHT22;969;49.892;10.896;2023-06-04T04:07:34;23.00;41.20
1936;DHT22;969;49.892;10.896;2023-06-04T04:10:00;23.00;41.30
1936;DHT22;969;49.892;10.896;2023-06-04T04:12:26;23.00;41.30
1936;DHT22;969;49.892;10.896;2023-06-04T04:14:51;23.00;41.30
1936;DHT22;969;49.892;10.896;2023-06-04T04:17:17;23.00;41.30
1936;DHT22;969;49.892;10.896;2023-06-04T04:19:43;23.00;41.40
1936;DHT22;969;49.892;10.896;2023-06-04T04:22:10;23.00;41.40
1936;DHT22;969;49.892;10.896;2023-06-04T04:24:36;23.00;41.70
1936;DHT22;969;49.892;10.896;2023-06-04T04:27:03;23.00;41.80
1936;DHT22;969;49.892;10.896;2023-06-04T04:29:29;23.00;42.00
1936;DHT22;969;49.892;10.896;2023-06-04T04:31:58;23.00;42.10
1936;DHT22;969;49.892;10.896;2023-06-04T04:34:36;23.00;42.20
1936;DHT22;969;49.892;10.896;2023-06-04T04:37:03;23.00;42.40
1936;DHT22;969;49.892;10.896;2023-06-04T04:39:28;23.00;42.60
1936;DHT22;969;49.892;10.896;2023-06-04T04:41:54;23.00;42.80
1936;DHT22;969;49.892;10.896;2023-06-04T04:44:20;23.00;42.80
1936;DHT22;969;49.892;10.896;2023-06-04T04:46:47;23.10;43.00
1936;DHT22;969;49.892;10.896;2023-06-04T04:49:13;23.10;43.10
1936;DHT22;969;49.892;10.896;2023-06-04T04:51:38;23.10;43.10
1936;DHT22;969;49.892;10.896;2023-06-04T04:54:04;23.10;43.10
1936;DHT22;969;49.892;10.896;2023-06-04T04:56:33;23.10;43.20
1936;DHT22;969;49.892;10.896;2023-06-04T04:59:00;23.10;43.20
1936;DHT22;969;49.892;10.896;2023-06-04T05:01:25;23.10;43.30
1936;DHT22;969;49.892;10.896;2023-06-04T05:03:51;23.10;43.20
1936;DHT22;969;49.892;10.896;2023-06-04T05:06:17;23.10;43.20
1936;DHT22;969;49.892;10.896;2023-06-04T05:08:42;23.10;43.20
1936;DHT22;969;49.892;10.896;2023-06-04T05:11:08;23.20;43.30
1936;DHT22;969;49.892;10.896;2023-06-04T05:13:34;23.20;43.40
1936;DHT22;969;49.892;10.896;2023-06-04T05:16:00;23.20;43.40
1936;DHT22;969;49.892;10.896;2023-06-04T05:18:34;23.20;43.30
1936;DHT22;969;49.892;10.896;2023-06-04T05:21:00;23.20;43.30
1936;DHT22;969;49.892;10.896;2023-06-04T05:23:28;23.20;43.40
1936;DHT22;969;49.892;10.896;2023-06-04T05:25:54;23.20;43.40
1936;DHT22;969;49.892;10.896;2023-06-04T05:28:20;23.20;43.40
1936;DHT22;969;49.892;10.896;2023-06-04T05:30:46;23.20;43.40
1936;DHT22;969;49.892;10.896;2023-06-04T05:33:14;23.20;43.40
1936;DHT22;969;49.892;10.896;2023-06-04T05:35:49;23.20;43.30
1936;DHT22;969;49.892;10.896;2023-06-04T05:38:15;23.20;43.40
1936;DHT22;969;49.892;10.896;2023-06-04T05:40:46;23.20;43.40
1936;DHT22;969;49.892;10.896;2023-06-04T05:43:12;23.30;43.40
1936;DHT22;969;49.892;10.896;2023-06-04T05:45:38;23.30;43.40
1936;DHT22;969;49.892;10.896;2023-06-04T05:48:04;23.30;43.40
1936;DHT22;969;49.892;10.896;2023-06-04T05:50:30;23.30;43.40
1936;DHT22;969;49.892;10.896;2023-06-04T05:52:56;23.30;43.40
1936;DHT22;969;49.892;10.896;2023-06-04T05:55:22;23.30;43.30
1936;DHT22;969;49.892;10.896;2023-06-04T05:57:48;23.30;43.30
1936;DHT22;969;49.892;10.896;2023-06-04T06:00:17;23.30;43.30
1936;DHT22;969;49.892;10.896;2023-06-04T06:02:43;23.30;43.40
1936;DHT22;969;49.892;10.896;2023-06-04T06:05:09;23.30;43.30
1936;DHT22;969;49.892;10.896;2023-06-04T06:07:35;23.30;43.30
1936;DHT22;969;49.892;10.896;2023-06-04T06:10:01;23.30;43.30
1936;DHT22;969;49.892;10.896;2023-06-04T06:12:27;23.30;43.30
1936;DHT22;969;49.892;10.896;2023-06-04T06:14:52;23.30;43.30
1936;DHT22;969;49.892;10.896;2023-06-04T06:17:18;23.30;43.30
1936;DHT22;969;49.892;10.896;2023-06-04T06:19:44;23.30;43.30
1936;DHT22;969;49.892;10.896;2023-06-04T06:22:10;23.30;43.40
1936;DHT22;969;49.892;10.896;2023-06-04T06:24:35;23.30;43.50
1936;DHT22;969;49.892;10.896;2023-06-04T06:27:01;23.30;43.60
1936;DHT22;969;49.892;10.896;2023-06-04T06:29:27;23.30;43.80
1936;DHT22;969;49.892;10.896;2023-06-04T06:31:52;23.30;43.90
1936;DHT22;969;49.892;10.896;2023-06-04T06:34:18;23.30;44.00
1936;DHT22;969;49.892;10.896;2023-06-04T06:36:43;23.30;44.00
1936;DHT22;969;49.892;10.896;2023-06-04T06:39:09;23.30;43.90
1936;DHT22;969;49.892;10.896;2023-06-04T06:41:36;23.30;44.00
1936;DHT22;969;49.892;10.896;2023-06-04T06:44:04;23.30;43.90
1936;DHT22;969;49.892;10.896;2023-06-04T06:46:29;23.30;44.00
1936;DHT22;969;49.892;10.896;2023-06-04T06:48:55;23.30;44.00
1936;DHT22;969;49.892;10.896;2023-06-04T06:51:21;23.30;43.90
1936;DHT22;969;49.892;10.896;2023-06-04T06:53:49;23.30;43.90
1936;DHT22;969;49.892;10.896;2023-06-04T06:56:15;23.30;43.80
1936;DHT22;969;49.892;10.896;2023-06-04T06:58:41;23.30;43.90
1936;DHT22;969;49.892;10.896;2023-06-04T07:01:06;23.30;44.00
1936;DHT22;969;49.892;10.896;2023-06-04T07:03:32;23.40;44.10
1936;DHT22;969;49.892;10.896;2023-06-04T07:05:58;23.40;44.10
1936;DHT22;969;49.892;10.896;2023-06-04T07:08:23;23.40;44.20
1936;DHT22;969;49.892;10.896;2023-06-04T07:10:49;23.40;44.20
1936;DHT22;969;49.892;10.896;2023-06-04T07:13:14;23.40;44.20
1936;DHT22;969;49.892;10.896;2023-06-04T07:15:41;23.40;44.30
1936;DHT22;969;49.892;10.896;2023-06-04T07:18:06;23.40;44.30
1936;DHT22;969;49.892;10.896;2023-06-04T07:20:32;23.40;44.40
1936;DHT22;969;49.892;10.896;2023-06-04T07:22:57;23.40;44.40
1936;DHT22;969;49.892;10.896;2023-06-04T07:25:23;23.40;44.40
1936;DHT22;969;49.892;10.896;2023-06-04T07:27:49;23.40;44.50
1936;DHT22;969;49.892;10.896;2023-06-04T07:30:18;23.40;44.50
1936;DHT22;969;49.892;10.896;2023-06-04T07:32:50;23.40;44.50
1936;DHT22;969;49.892;10.896;2023-06-04T07:35:16;23.40;44.50
1936;DHT22;969;49.892;10.896;2023-06-04T07:37:41;23.40;44.50
1936;DHT22;969;49.892;10.896;2023-06-04T07:40:10;23.40;44.60
1936;DHT22;969;49.892;10.896;2023-06-04T07:42:36;23.40;44.50
1936;DHT22;969;49.892;10.896;2023-06-04T07:45:02;23.40;44.50
1936;DHT22;969;49.892;10.896;2023-06-04T07:47:28;23.40;44.50
1936;DHT22;969;49.892;10.896;2023-06-04T07:49:53;23.40;44.60
1936;DHT22;969;49.892;10.896;2023-06-04T07:52:19;23.40;44.50
1936;DHT22;969;49.892;10.896;2023-06-04T07:54:44;23.40;44.60
1936;DHT22;969;49.892;10.896;2023-06-04T07:57:10;23.40;44.60
1936;DHT22;969;49.892;10.896;2023-06-04T07:59:36;23.40;44.50
1936;DHT22;969;49.892;10.896;2023-06-04T08:02:01;23.40;44.50
1936;DHT22;969;49.892;10.896;2023-06-04T08:04:27;23.40;44.60
1936;DHT22;969;49.892;10.896;2023-06-04T08:06:52;23.40;44.50
1936;DHT22;969;49.892;10.896;2023-06-04T08:09:18;23.40;44.50
1936;DHT22;969;49.892;10.896;2023-06-04T08:11:44;23.40;44.50
1936;DHT22;969;49.892;10.896;2023-06-04T08:14:13;23.40;44.40
1936;DHT22;969;49.892;10.896;2023-06-04T08:16:39;23.40;44.40
1936;DHT22;969;49.892;10.896;2023-06-04T08:19:06;23.40;44.40
1936;DHT22;969;49.892;10.896;2023-06-04T08:21:33;23.40;44.40
1936;DHT22;969;49.892;10.896;2023-06-04T08:23:59;23.40;44.40
1936;DHT22;969;49.892;10.896;2023-06-04T08:26:26;23.40;44.50
1936;DHT22;969;49.892;10.896;2023-06-04T08:28:55;23.40;44.50
1936;DHT22;969;49.892;10.896;2023-06-04T08:31:20;23.40;44.60
1936;DHT22;969;49.892;10.896;2023-06-04T08:33:47;23.40;44.60
1936;DHT22;969;49.892;10.896;2023-06-04T08:36:13;23.40;44.60
1936;DHT22;969;49.892;10.896;2023-06-04T08:38:38;23.40;44.70
1936;DHT22;969;49.892;10.896;2023-06-04T08:41:15;23.40;44.70
1936;DHT22;969;49.892;10.896;2023-06-04T08:43:43;23.40;44.70
1936;DHT22;969;49.892;10.896;2023-06-04T08:46:09;23.40;44.90
1936;DHT22;969;49.892;10.896;2023-06-04T08:48:37;23.40;44.80
1936;DHT22;969;49.892;10.896;2023-06-04T08:51:05;23.40;44.80
1936;DHT22;969;49.892;10.896;2023-06-04T08:53:32;23.50;44.90
1936;DHT22;969;49.892;10.896;2023-06-04T08:55:59;23.40;44.90
1936;DHT22;969;49.892;10.896;2023-06-04T08:58:25;23.40;44.90
1936;DHT22;969;49.892;10.896;2023-06-04T09:00:51;23.40;44.90
1936;DHT22;969;49.892;10.896;2023-06-04T09:03:17;23.40;44.90
1936;DHT22;969;49.892;10.896;2023-06-04T09:05:47;23.50;45.10
1936;DHT22;969;49.892;10.896;2023-06-04T09:08:16;23.50;45.10
1936;DHT22;969;49.892;10.896;2023-06-04T09:10:44;23.50;45.10
1936;DHT22;969;49.892;10.896;2023-06-04T09:13:13;23.50;45.10
1936;DHT22;969;49.892;10.896;2023-06-04T09:15:40;23.50;45.10
1936;DHT22;969;49.892;10.896;2023-06-04T09:18:06;23.50;45.10
1936;DHT22;969;49.892;10.896;2023-06-04T09:20:31;23.50;45.20
1936;DHT22;969;49.892;10.896;2023-06-04T09:22:58;23.50;45.10
1936;DHT22;969;49.892;10.896;2023-06-04T09:25:25;23.50;45.20
1936;DHT22;969;49.892;10.896;2023-06-04T09:27:53;23.50;45.20
1936;DHT22;969;49.892;10.896;2023-06-04T09:30:19;23.50;45.20
1936;DHT22;969;49.892;10.896;2023-06-04T09:32:45;23.50;45.20
1936;DHT22;969;49.892;10.896;2023-06-04T09:35:15;23.50;45.20
1936;DHT22;969;49.892;10.896;2023-06-04T09:37:42;23.50;45.20
1936;DHT22;969;49.892;10.896;2023-06-04T09:40:09;23.50;45.20
1936;DHT22;969;49.892;10.896;2023-06-04T09:42:48;23.50;45.30
1936;DHT22;969;49.892;10.896;2023-06-04T09:45:32;23.50;45.30
1936;DHT22;969;49.892;10.896;2023-06-04T09:47:58;23.50;45.30
1936;DHT22;969;49.892;10.896;2023-06-04T09:50:31;23.50;45.30
1936;DHT22;969;49.892;10.896;2023-06-04T09:52:59;23.50;45.30
1936;DHT22;969;49.892;10.896;2023-06-04T09:55:25;23.50;45.40
1936;DHT22;969;49.892;10.896;2023-06-04T09:57:52;23.50;45.40
1936;DHT22;969;49.892;10.896;2023-06-04T10:00:23;23.50;45.40
1936;DHT22;969;49.892;10.896;2023-06-04T10:02:50;23.50;45.50
1936;DHT22;969;49.892;10.896;2023-06-04T10:05:16;23.50;45.40
1936;DHT22;969;49.892;10.896;2023-06-04T10:07:46;23.50;45.40
1936;DHT22;969;49.892;10.896;2023-06-04T10:10:16;23.50;45.50
1936;DHT22;969;49.892;10.896;2023-06-04T10:12:43;23.50;45.40
1936;DHT22;969;49.892;10.896;2023-06-04T10:15:12;23.50;45.50
1936;DHT22;969;49.892;10.896;2023-06-04T10:17:38;23.50;45.50
1936;DHT22;969;49.892;10.896;2023-06-04T10:20:06;23.50;45.50
1936;DHT22;969;49.892;10.896;2023-06-04T10:22:34;23.50;45.50
1936;DHT22;969;49.892;10.896;2023-06-04T10:25:00;23.50;45.50
1936;DHT22;969;49.892;10.896;2023-06-04T10:27:26;23.50;45.50
1936;DHT22;969;49.892;10.896;2023-06-04T10:29:52;23.50;45.50
1936;DHT22;969;49.892;10.896;2023-06-04T10:32:18;23.50;45.50
1936;DHT22;969;49.892;10.896;2023-06-04T10:34:46;23.50;45.60
1936;DHT22;969;49.892;10.896;2023-06-04T10:37:25;23.50;46.20
1936;DHT22;969;49.892;10.896;2023-06-04T10:39:55;23.50;45.50
1936;DHT22;969;49.892;10.896;2023-06-04T10:42:22;23.50;45.60
1936;DHT22;969;49.892;10.896;2023-06-04T10:44:51;23.50;45.60
1936;DHT22;969;49.892;10.896;2023-06-04T10:47:27;23.50;45.60
1936;DHT22;969;49.892;10.896;2023-06-04T10:50:10;23.50;45.60
1936;DHT22;969;49.892;10.896;2023-06-04T10:52:36;23.50;45.60
1936;DHT22;969;49.892;10.896;2023-06-04T10:55:06;23.50;45.70
1936;DHT22;969;49.892;10.896;2023-06-04T10:57:32;23.50;45.70
1936;DHT22;969;49.892;10.896;2023-06-04T10:59:59;23.50;45.70
1936;DHT22;969;49.892;10.896;2023-06-04T11:02:26;23.50;45.70
1936;DHT22;969;49.892;10.896;2023-06-04T11:05:06;23.50;45.80
1936;DHT22;969;49.892;10.896;2023-06-04T11:07:44;23.50;45.80
1936;DHT22;969;49.892;10.896;2023-06-04T11:10:15;23.50;45.70
1936;DHT22;969;49.892;10.896;2023-06-04T11:12:49;23.50;45.80
1936;DHT22;969;49.892;10.896;2023-06-04T11:15:18;23.50;45.80
1936;DHT22;969;49.892;10.896;2023-06-04T11:20:17;23.50;45.80
1936;DHT22;969;49.892;10.896;2023-06-04T11:22:53;23.50;45.90
1936;DHT22;969;49.892;10.896;2023-06-04T11:25:19;23.50;45.90
1936;DHT22;969;49.892;10.896;2023-06-04T11:27:48;23.50;45.90
1936;DHT22;969;49.892;10.896;2023-06-04T11:30:14;23.50;45.90
1936;DHT22;969;49.892;10.896;2023-06-04T11:32:40;23.50;45.90
1936;DHT22;969;49.892;10.896;2023-06-04T11:35:06;23.50;45.90
1936;DHT22;969;49.892;10.896;2023-06-04T11:37:32;23.50;45.90
1936;DHT22;969;49.892;10.896;2023-06-04T11:39:59;23.50;46.00
1936;DHT22;969;49.892;10.896;2023-06-04T11:42:27;23.50;45.90
1936;DHT22;969;49.892;10.896;2023-06-04T11:44:59;23.50;46.00
1936;DHT22;969;49.892;10.896;2023-06-04T11:47:25;23.50;45.90
1936;DHT22;969;49.892;10.896;2023-06-04T11:49:56;23.50;46.00
1936;DHT22;969;49.892;10.896;2023-06-04T11:52:23;23.50;46.00
1936;DHT22;969;49.892;10.896;2023-06-04T11:54:48;23.50;46.00
1936;DHT22;969;49.892;10.896;2023-06-04T11:57:14;23.50;46.00
1936;DHT22;969;49.892;10.896;2023-06-04T11:59:40;23.50;46.00
1936;DHT22;969;49.892;10.896;2023-06-04T12:02:07;23.50;46.00
1936;DHT22;969;49.892;10.896;2023-06-04T12:04:33;23.50;46.00
1936;DHT22;969;49.892;10.896;2023-06-04T12:07:01;23.50;46.10
1936;DHT22;969;49.892;10.896;2023-06-04T12:09:31;23.50;46.00
1936;DHT22;969;49.892;10.896;2023-06-04T12:12:05;23.50;46.00
1936;DHT22;969;49.892;10.896;2023-06-04T12:14:31;23.50;46.10
1936;DHT22;969;49.892;10.896;2023-06-04T12:17:08;23.50;46.10
1936;DHT22;969;49.892;10.896;2023-06-04T12:19:48;23.50;46.10
1936;DHT22;969;49.892;10.896;2023-06-04T12:22:14;23.50;46.10
1936;DHT22;969;49.892;10.896;2023-06-04T12:24:51;23.50;46.10
1936;DHT22;969;49.892;10.896;2023-06-04T12:27:21;23.50;46.10
1936;DHT22;969;49.892;10.896;2023-06-04T12:30:01;23.50;46.10
1936;DHT22;969;49.892;10.896;2023-06-04T12:32:28;23.50;46.10
1936;DHT22;969;49.892;10.896;2023-06-04T12:34:54;23.50;46.20
1936;DHT22;969;49.892;10.896;2023-06-04T12:37:23;23.50;46.10
1936;DHT22;969;49.892;10.896;2023-06-04T12:39:51;23.50;46.20
1936;DHT22;969;49.892;10.896;2023-06-04T12:42:18;23.50;46.20
1936;DHT22;969;49.892;10.896;2023-06-04T12:44:44;23.50;46.20
1936;DHT22;969;49.892;10.896;2023-06-04T12:47:10;23.50;46.20
1936;DHT22;969;49.892;10.896;2023-06-04T12:49:36;23.50;46.20
1936;DHT22;969;49.892;10.896;2023-06-04T12:52:02;23.50;46.20
1936;DHT22;969;49.892;10.896;2023-06-04T12:54:28;23.50;46.20
1936;DHT22;969;49.892;10.896;2023-06-04T12:56:54;23.50;46.20
1936;DHT22;969;49.892;10.896;2023-06-04T12:59:26;23.50;46.20
1936;DHT22;969;49.892;10.896;2023-06-04T13:01:53;23.50;46.20
1936;DHT22;969;49.892;10.896;2023-06-04T13:04:18;23.50;46.20
1936;DHT22;969;49.892;10.896;2023-06-04T13:06:44;23.50;46.20
1936;DHT22;969;49.892;10.896;2023-06-04T13:09:11;23.50;46.20
1936;DHT22;969;49.892;10.896;2023-06-04T13:11:39;23.50;46.20
1936;DHT22;969;49.892;10.896;2023-06-04T13:14:05;23.50;46.20
1936;DHT22;969;49.892;10.896;2023-06-04T13:16:31;23.50;46.20
1936;DHT22;969;49.892;10.896;2023-06-04T13:18:56;23.50;46.20
1936;DHT22;969;49.892;10.896;2023-06-04T13:21:22;23.50;46.20
1936;DHT22;969;49.892;10.896;2023-06-04T13:23:48;23.50;46.20
1936;DHT22;969;49.892;10.896;2023-06-04T13:26:15;23.50;46.20
1936;DHT22;969;49.892;10.896;2023-06-04T13:28:41;23.50;46.20
1936;DHT22;969;49.892;10.896;2023-06-04T13:31:06;23.50;46.80
1936;DHT22;969;49.892;10.896;2023-06-04T13:33:32;23.50;46.20
1936;DHT22;969;49.892;10.896;2023-06-04T13:36:00;23.50;46.20
1936;DHT22;969;49.892;10.896;2023-06-04T13:38:25;23.50;46.20
1936;DHT22;969;49.892;10.896;2023-06-04T13:40:52;23.50;46.20
1936;DHT22;969;49.892;10.896;2023-06-04T13:43:17;23.50;46.20
1936;DHT22;969;49.892;10.896;2023-06-04T13:45:43;23.50;46.80
1936;DHT22;969;49.892;10.896;2023-06-04T13:48:11;23.50;46.20
1936;DHT22;969;49.892;10.896;2023-06-04T13:50:37;23.50;46.80
1936;DHT22;969;49.892;10.896;2023-06-04T13:53:02;23.50;46.20
1936;DHT22;969;49.892;10.896;2023-06-04T13:55:29;23.50;46.20
1936;DHT22;969;49.892;10.896;2023-06-04T13:57:55;23.50;46.10
1936;DHT22;969;49.892;10.896;2023-06-04T14:00:21;23.50;46.10
1936;DHT22;969;49.892;10.896;2023-06-04T14:02:47;23.50;46.10
1936;DHT22;969;49.892;10.896;2023-06-04T14:05:13;23.50;46.10
1936;DHT22;969;49.892;10.896;2023-06-04T14:07:41;23.50;46.10
1936;DHT22;969;49.892;10.896;2023-06-04T14:10:08;23.50;46.10
1936;DHT22;969;49.892;10.896;2023-06-04T14:12:34;23.50;46.10
1936;DHT22;969;49.892;10.896;2023-06-04T14:15:01;23.50;46.10
1936;DHT22;969;49.892;10.896;2023-06-04T14:17:26;23.50;46.10
1936;DHT22;969;49.892;10.896;2023-06-04T14:19:52;23.50;46.10
1936;DHT22;969;49.892;10.896;2023-06-04T14:22:17;23.50;46.10
1936;DHT22;969;49.892;10.896;2023-06-04T14:24:43;23.50;46.10
1936;DHT22;969;49.892;10.896;2023-06-04T14:27:09;23.50;46.80
1936;DHT22;969;49.892;10.896;2023-06-04T14:29:37;23.50;46.10
1936;DHT22;969;49.892;10.896;2023-06-04T14:32:04;23.50;46.10
1936;DHT22;969;49.892;10.896;2023-06-04T14:34:30;23.50;46.10
1936;DHT22;969;49.892;10.896;2023-06-04T14:36:57;23.50;46.10
1936;DHT22;969;49.892;10.896;2023-06-04T14:39:25;23.50;46.10
1936;DHT22;969;49.892;10.896;2023-06-04T14:41:51;23.50;46.10
1936;DHT22;969;49.892;10.896;2023-06-04T14:44:18;23.50;46.10
1936;DHT22;969;49.892;10.896;2023-06-04T14:46:43;23.50;46.10
1936;DHT22;969;49.892;10.896;2023-06-04T14:49:09;23.50;46.10
1936;DHT22;969;49.892;10.896;2023-06-04T14:51:35;23.50;46.00
1936;DHT22;969;49.892;10.896;2023-06-04T14:54:01;23.50;46.10
1936;DHT22;969;49.892;10.896;2023-06-04T14:56:27;23.50;46.10
1936;DHT22;969;49.892;10.896;2023-06-04T14:58:54;23.50;46.00
1936;DHT22;969;49.892;10.896;2023-06-04T15:01:19;23.50;46.00
1936;DHT22;969;49.892;10.896;2023-06-04T15:03:48;23.50;46.00
1936;DHT22;969;49.892;10.896;2023-06-04T15:06:13;23.50;46.00
1936;DHT22;969;49.892;10.896;2023-06-04T15:08:39;23.50;46.00
1936;DHT22;969;49.892;10.896;2023-06-04T15:11:04;23.50;45.90
1936;DHT22;969;49.892;10.896;2023-06-04T15:13:30;23.50;45.90
1936;DHT22;969;49.892;10.896;2023-06-04T15:15:55;23.50;45.90
1936;DHT22;969;49.892;10.896;2023-06-04T15:18:21;23.50;45.90
1936;DHT22;969;49.892;10.896;2023-06-04T15:20:47;23.50;45.80
1936;DHT22;969;49.892;10.896;2023-06-04T15:23:12;23.50;45.80
1936;DHT22;969;49.892;10.896;2023-06-04T15:25:38;23.50;45.70
1936;DHT22;969;49.892;10.896;2023-06-04T15:28:05;23.50;45.60
1936;DHT22;969;49.892;10.896;2023-06-04T15:30:30;23.50;45.50
1936;DHT22;969;49.892;10.896;2023-06-04T15:32:56;23.50;45.20
1936;DHT22;969;49.892;10.896;2023-06-04T15:35:26;23.50;45.00
1936;DHT22;969;49.892;10.896;2023-06-04T15:37:52;23.50;44.80
1936;DHT22;969;49.892;10.896;2023-06-04T15:40:17;23.50;44.70
1936;DHT22;969;49.892;10.896;2023-06-04T15:42:43;23.50;44.50
1936;DHT22;969;49.892;10.896;2023-06-04T15:45:09;23.50;44.50
1936;DHT22;969;49.892;10.896;2023-06-04T15:47:34;23.50;44.50
1936;DHT22;969;49.892;10.896;2023-06-04T15:50:00;23.50;44.60
1936;DHT22;969;49.892;10.896;2023-06-04T15:52:26;23.50;44.70
1936;DHT22;969;49.892;10.896;2023-06-04T15:54:51;23.50;45.10
1936;DHT22;969;49.892;10.896;2023-06-04T15:57:17;23.40;44.50
1936;DHT22;969;49.892;10.896;2023-06-04T15:59:43;23.50;44.40
1936;DHT22;969;49.892;10.896;2023-06-04T16:02:08;23.40;44.20
1936;DHT22;969;49.892;10.896;2023-06-04T16:04:34;23.40;44.10